< < Back
Terminal Aerodrome Forecast


Current Version              Previous Versions:   1  2  3  4  5  6  7  8  9  

Terminal Aerodrome Forecast

848
FTUS42 KJAX 271700
TAFGNV
TAF
KGNV 271721Z 2718/2818 03007KT P6SM SCT040
     FM280000 VRB03KT P6SM FEW250
     FM281600 10005KT P6SM SCT040=



Latest METAR

911
SAUS70 KWBC 272300 RRM
MTRGNV
METAR KGNV 272253Z 07009KT 10SM BKN060 30/21 A2996 RMK AO2 SLP144
T03000211


USA.gov is the U.S. government's official web portal to all federal, state and local government web resources and services.